Little Lake, CA (93542)

12:56 AM PDT on August 23, 2014 (GMT -0700)
RAWS FIVE MILE CA US | Change Station
CLOSE
Current Station
Personal Weather Station
Location: Little Lake, CA
Elevation: 4149 ft
Nearby Weather Stations

Elev 4149 ft 35.87 °N, 117.92 °W | Updated 30 minutes ago

Clear
Clear
75 °F
Feels Like 76 °F
N
32
Wind Variable Wind from WNW
Gusts 55.0 mph

Today
High -- | Low -- °F
--% Chance of Precip.
Yesterday
High -- | Low -- °F
Precip. -- in
6:16 AM 7:31 PM
Waning Crescent, 5% visible
Pressure 29.76 in
Visibility 10.0 miles
Clouds Clear
Heat Index 76 °F
Dew Point 36 °F
Humidity 24%
Rainfall 0.00 in
Snow Depth Not available.
UV 0 out of 12
Pollen 8.50 out of 12
Air Quality Not available.
Flu Activity Not available.
METAR KNID 230656Z AUTO 00000KT 10SM CLR 28/04 A2984 RMK AO2 SLP077 T02830039 $

More Conditions Fewer Conditions

Pressure 29.76 in
Visibility 10.0 miles
Clouds Clear
Heat Index 76 °F
Dew Point 36 °F
Humidity 24%
Rainfall 0.00 in
Snow Depth Not available.
UV 0 out of 12
Pollen 8.50 out of 12
Air Quality Not available.
Flu Activity Not available.
METAR KNID 230656Z AUTO 00000KT 10SM CLR 28/04 A2984 RMK AO2 SLP077 T02830039 $

More Conditions Fewer Conditions

10-Day Weather Forecast

Almanac

Astronomy

Aug. 23, 2014 Rise Set
Actual Time 6:16 AM PDT 7:31 PM PDT
Civil Twilight 5:49 AM PDT 7:57 PM PDT
Nautical Twilight 5:18 AM PDT 8:29 PM PDT
Astronomical Twilight 4:44 AM PDT 9:02 PM PDT
Moon 4:38 AM PDT 6:18 PM PDT
Length of Visible Light 14h 07m
Length of Day
13h 14m
Tomorrow will be 2m 6s shorter.
Waning Crescent, 5% of the Moon is Illuminated
Today
Waning Crescent
Aug 25
New
Sep 2
First Quarter
Sep 8
Full
Sep 15
Last Quarter

Today's Extremes

State Highs State Lows

Community

WunderPhotos

Upload Photos

1,746,384 photos uploaded!

WunderBlogs® & News

By Dr. Jeff Masters
Director of Meteorology, Weather Underground
By Kari Strenfel
Meteorologist, Weather Underground
By Christopher C. Burt
Weather Historian, Weather Underground
August 23, 2014
August 23, 2014
August 22, 2014

Nearby

Snow Depth

Station Depth Elevation
Leavitt Lake 0 in 9400 ft
Leavitt Meadows 1 in 7200 ft
Summit Meadow 1 in 9122 ft
Ebbetts Pass 0 in 8700 ft
Monitor Pass 0 in 8350 ft

Earthquake Activity

City Distance Mag. Time & Date
West Hills, California 126 miles 2.5 4:21 AM PDT
2014-08-18
Big Bear City, California 126 miles 3.7 9:55 PM PDT
2014-08-17
Minimum magnitude displayed is 2.5.

Coastal Water Temperatures

Place Temperature
No Stations Reporting

Nearby Weather Stations